createdAt,value
2023-03-20T00:01:13.540Z,5.00
2023-03-20T00:03:42.343Z,4.95
2023-03-20T00:06:17.702Z,4.90
2023-03-20T00:08:47.001Z,4.88
2023-03-20T00:11:30.769Z,4.81
2023-03-20T00:14:04.201Z,4.81
2023-03-20T00:16:34.540Z,4.77
2023-03-20T00:19:03.467Z,4.76
2023-03-20T00:21:34.508Z,4.67
2023-03-20T00:24:03.159Z,4.66
2023-03-20T00:26:36.156Z,4.63
2023-03-20T00:29:06.748Z,4.67
2023-03-20T00:31:38.068Z,4.62
2023-03-20T00:34:08.304Z,4.58
2023-03-20T00:36:38.285Z,4.53
2023-03-20T00:39:07.093Z,4.54
2023-03-20T00:41:43.493Z,4.49
2023-03-20T00:44:23.659Z,4.47
2023-03-20T00:46:55.479Z,4.39
2023-03-20T00:49:26.998Z,4.36
2023-03-20T00:51:56.856Z,4.31
2023-03-20T00:54:25.441Z,4.27
2023-03-20T00:56:58.373Z,4.24
2023-03-20T00:59:30.392Z,4.23
2023-03-20T01:01:59.573Z,4.21
2023-03-20T01:04:32.783Z,4.16
2023-03-20T01:07:02.794Z,4.13
2023-03-20T01:09:31.595Z,4.11
2023-03-20T01:12:01.602Z,4.08
2023-03-20T01:14:30.026Z,4.08
2023-03-20T01:16:58.733Z,4.09
2023-03-20T01:19:27.186Z,4.06
2023-03-20T01:21:55.530Z,4.07
2023-03-20T01:24:25.248Z,4.03
2023-03-20T01:26:54.937Z,4.01
2023-03-20T01:29:25.425Z,3.97
2023-03-20T01:31:55.028Z,3.98
2023-03-20T01:34:24.157Z,3.99
2023-03-20T01:36:54.553Z,3.98
2023-03-20T01:39:30.358Z,3.98
2023-03-20T01:41:58.730Z,3.99
2023-03-20T01:44:30.640Z,4.03
2023-03-20T01:47:00.265Z,4.00
2023-03-20T01:50:05.787Z,3.95
2023-03-20T01:52:34.102Z,3.94
2023-03-20T01:55:04.307Z,3.92
2023-03-20T01:57:32.769Z,3.92
2023-03-20T02:00:06.910Z,3.89
2023-03-20T02:02:35.327Z,3.89
2023-03-20T02:05:06.828Z,3.87
2023-03-20T02:07:37.224Z,3.89
2023-03-20T02:10:10.231Z,3.96
2023-03-20T02:12:57.803Z,4.01
2023-03-20T02:15:29.342Z,4.01
2023-03-20T02:17:57.830Z,4.03
2023-03-20T02:20:38.136Z,4.04
2023-03-20T02:23:41.951Z,4.04
2023-03-20T02:26:27.623Z,4.08
2023-03-20T02:29:45.662Z,4.07
2023-03-20T02:32:50.455Z,4.18
2023-03-20T02:35:44.702Z,4.22
2023-03-20T02:38:37.111Z,4.28
2023-03-20T02:41:16.324Z,4.34
2023-03-20T02:43:50.060Z,4.38
2023-03-20T02:46:30.386Z,4.39
2023-03-20T02:49:02.730Z,4.40
2023-03-20T02:51:37.721Z,4.44
2023-03-20T02:54:15.049Z,4.44
2023-03-20T02:56:51.392Z,4.49
2023-03-20T02:59:29.268Z,4.53
2023-03-20T03:02:05.472Z,4.56
2023-03-20T03:04:37.975Z,4.59
2023-03-20T03:07:09.908Z,4.65
2023-03-20T03:09:44.885Z,4.64
2023-03-20T03:12:15.090Z,4.71
2023-03-20T03:14:47.110Z,4.73
2023-03-20T03:17:17.930Z,4.75
2023-03-20T03:19:48.644Z,4.71
2023-03-20T03:22:18.085Z,4.70
2023-03-20T03:24:49.585Z,4.75
2023-03-20T03:27:21.760Z,4.80
2023-03-20T03:29:55.179Z,4.73
2023-03-20T03:32:33.668Z,4.76
2023-03-20T03:35:05.725Z,4.80
2023-03-20T03:37:44.185Z,4.82
2023-03-20T03:40:27.612Z,4.83
2023-03-20T03:43:03.116Z,4.83
2023-03-20T03:45:36.618Z,4.85
2023-03-20T03:48:11.211Z,4.86
2023-03-20T03:50:48.669Z,4.89
2023-03-20T03:53:21.715Z,4.92
2023-03-20T03:55:54.981Z,4.89
2023-03-20T03:58:29.459Z,4.87
2023-03-20T04:01:01.639Z,4.86
2023-03-20T04:03:34.143Z,4.87
2023-03-20T04:06:04.556Z,4.92
2023-03-20T04:08:32.864Z,4.98
2023-03-20T04:11:02.794Z,5.01
2023-03-20T04:13:31.292Z,5.03
2023-03-20T04:16:01.329Z,5.01
2023-03-20T04:18:29.598Z,5.05
2023-03-20T04:20:57.951Z,5.08
2023-03-20T04:23:26.298Z,5.07
2023-03-20T04:25:54.580Z,5.06
2023-03-20T04:28:24.537Z,5.06
2023-03-20T04:30:56.456Z,5.10
2023-03-20T04:33:25.776Z,5.14
2023-03-20T04:35:54.423Z,5.17
2023-03-20T04:38:24.162Z,5.18
2023-03-20T04:40:52.714Z,5.22
2023-03-20T04:43:38.921Z,5.21
2023-03-20T04:46:08.121Z,5.21
2023-03-20T04:48:36.799Z,5.23
2023-03-20T04:51:05.489Z,5.31
2023-03-20T04:53:34.957Z,5.38
2023-03-20T04:56:03.290Z,5.48
2023-03-20T04:58:33.580Z,5.53
2023-03-20T05:01:01.990Z,5.57
2023-03-20T05:03:30.369Z,5.63
2023-03-20T05:05:58.566Z,5.69
2023-03-20T05:08:27.418Z,5.75
2023-03-20T05:10:55.797Z,5.81
2023-03-20T05:13:24.195Z,5.83
2023-03-20T05:15:53.946Z,5.91
2023-03-20T05:18:22.459Z,6.00
2023-03-20T05:23:19.353Z,6.10
2023-03-20T05:25:52.126Z,6.13
2023-03-20T05:28:20.475Z,6.23
2023-03-20T05:30:50.327Z,6.25
2023-03-20T05:33:20.582Z,6.30
2023-03-20T05:35:48.787Z,6.33
2023-03-20T05:38:16.933Z,6.38
2023-03-20T05:40:45.266Z,6.46
2023-03-20T05:43:13.820Z,6.49
2023-03-20T05:45:43.336Z,6.55
2023-03-20T05:48:11.724Z,6.58
2023-03-20T05:50:43.356Z,6.58
2023-03-20T05:53:11.442Z,6.68
2023-03-20T05:55:39.673Z,6.69
2023-03-20T05:58:07.742Z,6.79
2023-03-20T06:00:35.911Z,6.86
2023-03-20T06:03:04.056Z,6.91
2023-03-20T06:05:32.236Z,7.01
2023-03-20T06:08:01.929Z,7.08
2023-03-20T06:10:30.342Z,7.13
2023-03-20T06:13:01.137Z,7.21
2023-03-20T06:15:29.592Z,7.33
2023-03-20T07:45:21.134Z,11.73
2023-03-20T07:47:49.864Z,11.85
2023-03-20T07:50:18.674Z,11.99
2023-03-20T07:52:50.143Z,12.12
2023-03-20T07:55:19.627Z,12.24
2023-03-20T07:57:51.226Z,12.32
2023-03-20T08:00:21.958Z,12.40
2023-03-20T08:02:50.282Z,12.39
2023-03-20T08:05:18.823Z,12.42
2023-03-20T08:07:47.185Z,12.41
2023-03-20T08:10:15.929Z,12.41
2023-03-20T08:12:44.289Z,12.40
2023-03-20T08:15:13.288Z,12.29
2023-03-20T08:17:45.804Z,12.32
2023-03-20T08:20:15.561Z,12.25
2023-03-20T08:22:45.195Z,12.31
2023-03-20T08:25:13.531Z,12.27
2023-03-20T08:27:41.662Z,12.28
2023-03-20T08:30:11.791Z,12.26
2023-03-20T08:32:46.640Z,12.19
2023-03-20T08:35:31.522Z,12.19
2023-03-20T08:38:00.781Z,12.26
2023-03-20T08:40:29.395Z,12.41
2023-03-20T08:43:10.467Z,12.54
2023-03-20T08:45:39.173Z,12.72
2023-03-20T08:48:09.425Z,12.91
2023-03-20T08:50:37.931Z,13.11
2023-03-20T08:53:09.134Z,13.31
2023-03-20T08:55:38.695Z,13.46
2023-03-20T08:58:07.152Z,13.56
2023-03-20T09:00:35.250Z,13.62
2023-03-20T09:03:03.448Z,13.77
2023-03-20T09:05:34.142Z,13.93
2023-03-20T09:08:02.371Z,14.07
2023-03-20T09:10:33.429Z,14.23
2023-03-20T09:13:09.536Z,14.31
2023-03-20T09:15:44.036Z,14.39
2023-03-20T09:18:12.197Z,14.53
2023-03-20T09:20:41.710Z,14.71
2023-03-20T09:23:09.817Z,14.88
2023-03-20T09:25:38.431Z,15.01
2023-03-20T09:28:11.431Z,15.15
2023-03-20T09:30:39.700Z,15.27
2023-03-20T09:33:07.825Z,15.39
2023-03-20T09:35:36.188Z,15.50
2023-03-20T09:38:05.677Z,15.60
2023-03-20T09:40:45.876Z,15.80
2023-03-20T09:43:23.917Z,16.04
2023-03-20T09:45:58.317Z,16.28
2023-03-20T09:48:34.438Z,16.46
2023-03-20T09:51:11.769Z,16.73
2023-03-20T09:53:45.105Z,17.04
2023-03-20T09:56:17.830Z,17.39
2023-03-20T09:58:53.640Z,17.73
2023-03-20T10:01:23.723Z,18.08
2023-03-20T10:03:55.681Z,18.40
2023-03-20T10:06:24.273Z,18.54
2023-03-20T10:08:55.326Z,18.76
2023-03-20T10:11:44.395Z,18.93
2023-03-20T10:14:23.153Z,19.05
2023-03-20T10:17:05.763Z,19.11
2023-03-20T10:19:38.114Z,19.37
2023-03-20T10:22:17.678Z,19.70
2023-03-20T10:24:53.966Z,19.96
2023-03-20T10:27:28.166Z,20.09
2023-03-20T10:30:09.780Z,20.25
2023-03-20T10:32:49.660Z,20.52
2023-03-20T10:35:24.943Z,20.63
2023-03-20T10:38:19.067Z,20.78
2023-03-20T10:40:49.023Z,21.02
2023-03-20T10:43:22.590Z,21.12
2023-03-20T10:45:53.861Z,21.14
2023-03-20T10:48:27.168Z,21.10
2023-03-20T10:50:57.532Z,20.97
2023-03-20T10:53:31.431Z,20.95
2023-03-20T10:56:06.613Z,21.02
2023-03-20T10:58:39.917Z,21.17
2023-03-20T11:01:08.811Z,21.47
2023-03-20T11:15:29.668Z,20.80
2023-03-20T11:29:51.390Z,20.21
2023-03-20T11:37:10.603Z,20.56
2023-03-20T11:41:01.160Z,20.99
2023-03-20T11:48:54.248Z,21.47
2023-03-20T11:51:56.728Z,21.60
2023-03-20T11:55:35.400Z,21.69
2023-03-20T12:02:56.119Z,22.73
2023-03-20T12:27:08.985Z,23.90
2023-03-20T14:01:29.299Z,23.92
2023-03-20T14:19:04.489Z,22.80
2023-03-20T14:59:35.964Z,22.74
2023-03-20T15:02:33.392Z,23.27
2023-03-20T15:09:27.146Z,23.45
2023-03-20T15:15:54.266Z,22.98
2023-03-20T15:18:39.168Z,22.80
2023-03-20T15:21:28.241Z,22.61
2023-03-20T15:30:40.034Z,22.05
2023-03-20T15:33:43.910Z,21.86
2023-03-20T15:36:36.546Z,21.66
2023-03-20T15:39:20.302Z,21.44
2023-03-20T15:42:15.920Z,21.25
2023-03-20T15:45:20.017Z,21.02
2023-03-20T15:48:30.448Z,20.79
2023-03-20T15:51:19.333Z,20.60
2023-03-20T15:57:02.220Z,20.24
2023-03-20T15:59:53.090Z,20.05
2023-03-20T16:02:42.829Z,19.84
2023-03-20T16:05:47.746Z,19.69
2023-03-20T16:08:34.557Z,19.57
2023-03-20T16:11:20.098Z,19.43
2023-03-20T16:14:01.059Z,19.34
2023-03-20T16:17:01.062Z,19.25
2023-03-20T16:19:44.973Z,19.14
2023-03-20T16:22:29.605Z,19.00
2023-03-20T16:25:55.666Z,18.82
2023-03-20T16:29:00.852Z,18.72
2023-03-20T16:31:35.462Z,18.60
2023-03-20T16:34:10.450Z,18.51
2023-03-20T16:36:41.591Z,18.39
2023-03-20T16:39:11.960Z,18.34
2023-03-20T16:41:47.096Z,18.28
2023-03-20T16:44:18.516Z,18.24
2023-03-20T16:47:04.847Z,18.20
2023-03-20T16:50:12.329Z,18.15
2023-03-20T16:52:47.295Z,18.13
2023-03-20T16:55:19.040Z,18.03
2023-03-20T16:57:54.938Z,17.92
2023-03-20T17:00:30.004Z,17.81
2023-03-20T17:03:15.439Z,17.68
2023-03-20T17:05:49.795Z,17.56
2023-03-20T17:08:29.599Z,17.44
2023-03-20T17:11:01.387Z,17.27
2023-03-20T17:13:31.004Z,17.16
2023-03-20T17:15:59.742Z,17.08
2023-03-20T17:18:30.158Z,16.94
2023-03-20T17:20:58.299Z,16.87
2023-03-20T17:23:26.492Z,16.77
2023-03-20T17:25:55.185Z,16.67
2023-03-20T17:28:25.380Z,16.55
2023-03-20T17:30:55.147Z,16.41
2023-03-20T17:33:23.553Z,16.30
2023-03-20T17:35:53.042Z,16.16
2023-03-20T17:38:23.253Z,16.08
2023-03-20T17:40:53.039Z,15.98
2023-03-20T17:43:21.434Z,15.86
2023-03-20T17:45:49.904Z,15.72
2023-03-20T17:48:22.176Z,15.57
2023-03-20T17:50:51.659Z,15.48
2023-03-20T17:53:21.865Z,15.37
2023-03-20T17:55:54.743Z,15.23
2023-03-20T17:58:24.799Z,15.14
2023-03-20T18:00:54.571Z,15.04
2023-03-20T18:03:24.499Z,14.97
2023-03-20T18:05:53.279Z,14.88
2023-03-20T18:08:23.559Z,14.82
2023-03-20T18:10:53.309Z,14.76
2023-03-20T18:13:22.806Z,14.71
2023-03-20T18:15:52.444Z,14.64
2023-03-20T18:18:23.728Z,14.52
2023-03-20T18:20:55.127Z,14.39
2023-03-20T18:23:23.249Z,14.30
2023-03-20T18:25:51.525Z,14.20
2023-03-20T18:28:24.660Z,14.14
2023-03-20T18:30:52.901Z,14.09
2023-03-20T18:33:27.837Z,14.06
2023-03-20T18:35:57.375Z,14.01
2023-03-20T18:38:25.927Z,13.91
2023-03-20T18:40:53.999Z,13.85
2023-03-20T18:43:22.111Z,13.80
2023-03-20T18:45:50.331Z,13.76
2023-03-20T18:48:18.581Z,13.70
2023-03-20T18:50:51.114Z,13.67
2023-03-20T18:53:23.857Z,13.61
2023-03-20T18:55:52.175Z,13.55
2023-03-20T18:58:22.971Z,13.50
2023-03-20T19:00:56.012Z,13.45
2023-03-20T19:03:25.597Z,13.41
2023-03-20T19:05:55.675Z,13.40
2023-03-20T19:08:25.819Z,13.31
2023-03-20T19:10:54.356Z,13.27
2023-03-20T19:13:24.873Z,13.20
2023-03-20T19:15:53.318Z,13.10
2023-03-20T19:18:23.637Z,12.98
2023-03-20T19:20:53.168Z,12.95
2023-03-20T19:23:21.949Z,12.93
2023-03-20T19:25:53.259Z,12.89
2023-03-20T19:28:36.873Z,12.87
2023-03-20T19:31:06.747Z,12.90
2023-03-20T19:33:35.155Z,12.88
2023-03-20T19:36:04.504Z,12.87
2023-03-20T19:38:33.814Z,12.85
2023-03-20T19:41:03.940Z,12.81
2023-03-20T19:43:32.542Z,12.76
2023-03-20T19:46:01.093Z,12.71
2023-03-20T19:48:49.551Z,12.73
2023-03-20T19:51:20.338Z,12.72
2023-03-20T19:53:49.315Z,12.77
2023-03-20T19:56:21.402Z,12.76
2023-03-20T19:58:50.404Z,12.79
2023-03-20T20:01:21.613Z,12.80
2023-03-20T20:03:51.046Z,12.79
2023-03-20T20:06:22.164Z,12.80
2023-03-20T20:08:51.632Z,12.74
2023-03-20T20:11:23.327Z,12.67
2023-03-20T20:14:05.821Z,12.65
2023-03-20T20:16:35.862Z,12.61
2023-03-20T20:19:05.509Z,12.60
2023-03-20T20:24:22.830Z,12.69
2023-03-20T20:27:15.291Z,12.75
2023-03-20T20:29:47.480Z,12.83
2023-03-20T20:32:15.692Z,12.91
2023-03-20T20:40:25.606Z,13.13
2023-03-20T20:43:01.476Z,13.15
2023-03-20T20:45:35.201Z,13.17
2023-03-20T20:48:06.063Z,13.19
2023-03-20T20:50:36.204Z,13.25
2023-03-20T20:53:04.845Z,13.30
2023-03-20T20:55:33.266Z,13.33
2023-03-20T20:58:04.169Z,13.37
2023-03-20T21:00:48.015Z,13.38
2023-03-20T21:03:20.379Z,13.43
2023-03-20T21:05:48.914Z,13.44
2023-03-20T21:08:18.771Z,13.44
2023-03-20T21:10:48.108Z,13.42
2023-03-20T21:13:23.432Z,13.42
2023-03-20T21:16:01.921Z,13.39
2023-03-20T21:18:32.466Z,13.41
2023-03-20T21:21:09.066Z,13.40
2023-03-20T21:23:37.555Z,13.38
2023-03-20T21:26:06.866Z,13.37
2023-03-20T21:28:38.893Z,13.37
2023-03-20T21:31:23.831Z,13.35
2023-03-20T21:33:55.044Z,13.38
2023-03-20T21:36:24.324Z,13.37
2023-03-20T21:39:09.431Z,13.39
2023-03-20T21:41:37.876Z,13.42
2023-03-20T21:44:14.990Z,13.42
2023-03-20T21:56:09.397Z,13.67
2023-03-20T22:01:29.457Z,13.69
2023-03-20T22:15:54.200Z,13.63
2023-03-20T22:18:21.525Z,13.64
2023-03-20T22:21:18.377Z,13.64
2023-03-20T22:24:05.849Z,13.64
2023-03-20T22:35:22.768Z,13.72
2023-03-20T22:44:10.987Z,13.80
2023-03-20T22:46:08.106Z,13.83
2023-03-20T22:48:41.205Z,13.86
2023-03-20T22:51:11.156Z,13.88
2023-03-20T22:53:39.616Z,13.85
2023-03-20T22:56:08.885Z,13.86
2023-03-20T22:58:37.124Z,13.76
2023-03-20T23:01:08.705Z,13.78
2023-03-20T23:03:42.222Z,13.75
2023-03-20T23:06:19.752Z,13.74
2023-03-20T23:08:53.980Z,13.76
2023-03-20T23:11:24.528Z,13.75
2023-03-20T23:13:53.078Z,13.74
2023-03-20T23:16:22.045Z,13.72
2023-03-20T23:18:50.839Z,13.69
2023-03-20T23:21:21.133Z,13.62
2023-03-20T23:23:52.087Z,13.61
2023-03-20T23:26:24.937Z,13.60
2023-03-20T23:28:55.020Z,13.60
2023-03-20T23:31:26.798Z,13.60
2023-03-20T23:33:56.584Z,13.59
2023-03-20T23:36:42.873Z,13.59
2023-03-20T23:39:14.211Z,13.58
2023-03-20T23:44:30.730Z,13.61
2023-03-20T23:47:01.333Z,13.60
2023-03-20T23:49:31.679Z,13.61
2023-03-20T23:52:01.307Z,13.58
2023-03-20T23:54:29.501Z,13.58
2023-03-20T23:56:57.776Z,13.57
2023-03-20T23:59:26.072Z,13.57
